Terminal Aerodrome Forecast
Issued by NWS

Home | Current Version | Previous Version | Text Only | Print | Product List | Glossary On
Versions: 1 2 3 4 5 6 7 8 9 10 11 12 13 14 15
000
FTUS44 KSJT 220500
TAFBBD
TAF
KBBD 220520Z 2206/2306 12007KT P6SM VCSH SCT020 WS020/18040KT
     FM220700 13008KT 5SM -DZ VCSH OVC016 WS020/18040KT
     FM220900 14008KT 5SM -SHRA OVC009 WS020/18035KT
     FM221400 15010KT 4SM -RA OVC007
     FM221900 16011KT P6SM VCSH BKN020
     FM222300 17009KT P6SM BKN100=

USA.gov is the U.S. government's official web portal to all federal, state and local government web resources and services.